RYR576P EINN-EGSS
Flight info
| Callsign | RYR576P |
|---|---|
| Flight time | N/A |
| Altitude | 33000 |
| Route | ABAGU3B ABAGU DCT ENJEX DCT AVZAC DCT ICOSA DCT RUHUN DCT YORQI DCT CAWZE/N0369F230 P2 SIRIC SIRIC1L |
| Aircraft | B739/M-SDE2E3FGHIRWXY/LB1 |
Departure
| Time | 2026-04-27 19:45 |
|---|---|
| Airport | Shannon Airport (EINN) |
Arrival
| Time | N/A |
|---|---|
| Airport | London Stansted Airport (EGSS) |
| Time | Latitude | Longitude | Altitude | Speed | Heading |
|---|---|---|---|---|---|
| 2026-04-27 19:06 | 52.69353 | -8.91881 | 35 ft | 0 kts | 223° |
| 2026-04-27 19:36 | 52.69361 | -8.91869 | 13 ft | 2 kts | 217° |
| 2026-04-27 19:36 | 52.69374 | -8.91853 | 44 ft | 2 kts | 211° |
| 2026-04-27 19:36 | 52.69389 | -8.91840 | 34 ft | 2 kts | 198° |
| 2026-04-27 19:36 | 52.69405 | -8.91835 | 33 ft | 2 kts | 177° |
| 2026-04-27 19:37 | 52.69421 | -8.91841 | 33 ft | 2 kts | 149° |
| 2026-04-27 19:37 | 52.69433 | -8.91859 | 34 ft | 2 kts | 121° |
| 2026-04-27 19:37 | 52.69435 | -8.91865 | 34 ft | 0 kts | 112° |
| 2026-04-27 19:39 | 52.69435 | -8.91864 | 35 ft | 1 kts | 112° |
| 2026-04-27 19:39 | 52.69423 | -8.91818 | 33 ft | 8 kts | 116° |
| 2026-04-27 19:40 | 52.69387 | -8.91712 | 34 ft | 14 kts | 123° |
| 2026-04-27 19:40 | 52.69327 | -8.91589 | 35 ft | 12 kts | 124° |
| 2026-04-27 19:40 | 52.69345 | -8.91481 | 35 ft | 12 kts | 23° |
| 2026-04-27 19:40 | 52.69421 | -8.91440 | 33 ft | 11 kts | 18° |
| 2026-04-27 19:41 | 52.69499 | -8.91397 | 35 ft | 12 kts | 20° |
| 2026-04-27 19:41 | 52.69593 | -8.91341 | 35 ft | 17 kts | 17° |
| 2026-04-27 19:41 | 52.69724 | -8.91274 | 35 ft | 22 kts | 19° |
| 2026-04-27 19:41 | 52.69885 | -8.91182 | 35 ft | 26 kts | 19° |
| 2026-04-27 19:42 | 52.70055 | -8.91089 | 34 ft | 25 kts | 19° |
| 2026-04-27 19:42 | 52.70215 | -8.91001 | 34 ft | 23 kts | 18° |
| 2026-04-27 19:42 | 52.70366 | -8.90918 | 35 ft | 23 kts | 18° |
| 2026-04-27 19:42 | 52.70512 | -8.90836 | 35 ft | 22 kts | 19° |
| 2026-04-27 19:43 | 52.70655 | -8.90756 | 35 ft | 21 kts | 18° |
| 2026-04-27 19:43 | 52.70792 | -8.90682 | 36 ft | 15 kts | 18° |
| 2026-04-27 19:43 | 52.70854 | -8.90665 | 36 ft | 9 kts | 353° |
| 2026-04-27 19:43 | 52.70906 | -8.90710 | 38 ft | 9 kts | 322° |
| 2026-04-27 19:44 | 52.70952 | -8.90770 | 44 ft | 8 kts | 321° |
| 2026-04-27 19:44 | 52.70969 | -8.90852 | 45 ft | 8 kts | 253° |
| 2026-04-27 19:44 | 52.70930 | -8.90925 | 45 ft | 10 kts | 229° |
| 2026-04-27 19:44 | 52.70799 | -8.91201 | 45 ft | 64 kts | 232° |
| 2026-04-27 19:45 | 52.70385 | -8.92084 | 46 ft | 128 kts | 232° |
| 2026-04-27 19:45 | 52.69753 | -8.93464 | 107 ft | 170 kts | 232° |
| 2026-04-27 19:45 | 52.69019 | -8.95017 | 724 ft | 174 kts | 233° |
| 2026-04-27 19:45 | 52.68022 | -8.96230 | 1237 ft | 186 kts | 193° |
| 2026-04-27 19:46 | 52.66688 | -8.96029 | 1534 ft | 208 kts | 156° |
| 2026-04-27 19:46 | 52.65282 | -8.95209 | 2049 ft | 217 kts | 162° |
| 2026-04-27 19:46 | 52.63780 | -8.94593 | 2602 ft | 226 kts | 166° |
| 2026-04-27 19:46 | 52.62220 | -8.94063 | 3332 ft | 227 kts | 167° |
| 2026-04-27 19:47 | 52.60688 | -8.93397 | 4038 ft | 232 kts | 150° |
| 2026-04-27 19:47 | 52.59487 | -8.91682 | 4737 ft | 229 kts | 121° |
| 2026-04-27 19:47 | 52.59010 | -8.89255 | 5421 ft | 226 kts | 94° |
| 2026-04-27 19:47 | 52.58841 | -8.86584 | 5694 ft | 251 kts | 92° |
| 2026-04-27 19:48 | 52.58673 | -8.83611 | 6133 ft | 267 kts | 92° |
| 2026-04-27 19:48 | 52.58496 | -8.80538 | 6870 ft | 272 kts | 92° |
| 2026-04-27 19:48 | 52.58431 | -8.79428 | 7130 ft | 273 kts | 92° |
| 2026-04-27 19:49 | 52.58400 | -8.78909 | 7253 ft | 274 kts | 92° |
| 2026-04-27 19:49 | 52.58208 | -8.75771 | 8003 ft | 277 kts | 92° |
| 2026-04-27 19:49 | 52.58009 | -8.72601 | 8750 ft | 280 kts | 92° |
| 2026-04-27 19:49 | 52.57803 | -8.69393 | 9531 ft | 283 kts | 92° |
| 2026-04-27 19:50 | 52.57595 | -8.66201 | 10260 ft | 287 kts | 92° |
| 2026-04-27 19:50 | 52.57378 | -8.62921 | 10927 ft | 290 kts | 92° |
| 2026-04-27 19:50 | 52.57156 | -8.59601 | 11590 ft | 294 kts | 92° |
| 2026-04-27 19:50 | 52.56929 | -8.56246 | 12269 ft | 297 kts | 92° |
| 2026-04-27 19:51 | 52.56698 | -8.52842 | 12959 ft | 300 kts | 92° |
| 2026-04-27 19:51 | 52.56464 | -8.49412 | 13639 ft | 304 kts | 92° |
| 2026-04-27 19:51 | 52.56225 | -8.45930 | 14298 ft | 307 kts | 92° |
| 2026-04-27 19:51 | 52.55982 | -8.42418 | 14901 ft | 310 kts | 91° |
| 2026-04-27 19:52 | 52.55737 | -8.38880 | 15505 ft | 314 kts | 91° |
| 2026-04-27 19:52 | 52.55487 | -8.35297 | 16108 ft | 317 kts | 91° |
| 2026-04-27 19:52 | 52.55234 | -8.31676 | 16706 ft | 320 kts | 91° |
| 2026-04-27 19:52 | 52.54977 | -8.28026 | 17307 ft | 323 kts | 91° |
| 2026-04-27 19:53 | 52.54443 | -8.20655 | 18496 ft | 330 kts | 91° |
| 2026-04-27 19:53 | 52.54159 | -8.16960 | 19019 ft | 333 kts | 91° |